createdAt,value
2022-10-28T00:01:55.700Z,4.97
2022-10-28T00:04:25.828Z,5.75
2022-10-28T00:06:55.644Z,5.50
2022-10-28T00:09:25.499Z,6.18
2022-10-28T00:11:55.218Z,5.45
2022-10-28T00:14:27.611Z,5.53
2022-10-28T00:16:57.316Z,5.50
2022-10-28T00:19:27.094Z,5.30
2022-10-28T00:21:56.861Z,5.82
2022-10-28T00:24:26.848Z,5.13
2022-10-28T00:26:56.625Z,5.43
2022-10-28T00:29:29.219Z,5.53
2022-10-28T00:31:59.650Z,5.60
2022-10-28T00:34:29.422Z,5.43
2022-10-28T00:36:59.109Z,5.75
2022-10-28T00:39:29.639Z,5.53
2022-10-28T00:42:03.749Z,5.55
2022-10-28T00:45:06.301Z,5.72
2022-10-28T00:47:44.809Z,5.20
2022-10-28T00:50:22.667Z,5.65
2022-10-28T00:52:56.194Z,5.28
2022-10-28T00:55:27.208Z,5.13
2022-10-28T00:57:57.933Z,5.35
2022-10-28T01:00:29.001Z,5.22
2022-10-28T01:03:01.333Z,5.05
2022-10-28T01:05:33.059Z,5.63
2022-10-28T01:08:04.936Z,5.93
2022-10-28T01:10:50.732Z,5.18
2022-10-28T01:13:29.946Z,5.88
2022-10-28T01:16:07.787Z,5.22
2022-10-28T01:18:49.218Z,5.53
2022-10-28T01:21:46.490Z,5.88
2022-10-28T01:24:29.454Z,5.97
2022-10-28T01:27:28.545Z,6.18
2022-10-28T01:30:14.877Z,5.50
2022-10-28T01:32:58.931Z,5.57
2022-10-28T01:35:32.347Z,5.50
2022-10-28T01:38:16.871Z,5.72
2022-10-28T01:40:52.737Z,5.40
2022-10-28T01:43:28.082Z,5.07
2022-10-28T01:46:03.524Z,6.00
2022-10-28T01:48:42.105Z,5.35
2022-10-28T01:51:18.735Z,5.00
2022-10-28T01:53:51.941Z,5.57
2022-10-28T01:56:27.554Z,5.57
2022-10-28T01:58:59.310Z,5.18
2022-10-28T02:01:31.624Z,5.57
2022-10-28T02:04:04.970Z,5.38
2022-10-28T02:06:36.023Z,5.53
2022-10-28T02:09:17.590Z,5.38
2022-10-28T02:12:09.415Z,5.22
2022-10-28T02:14:58.785Z,5.28
2022-10-28T02:17:37.506Z,5.55
2022-10-28T02:20:17.102Z,5.50
2022-10-28T02:22:52.893Z,5.38
2022-10-28T02:25:25.965Z,6.00
2022-10-28T02:28:01.519Z,6.63
2022-10-28T02:30:36.683Z,6.60
2022-10-28T02:33:10.606Z,6.40
2022-10-28T02:35:48.092Z,6.68
2022-10-28T02:38:20.992Z,6.30
2022-10-28T02:40:55.298Z,6.75
2022-10-28T02:46:01.624Z,6.03
2022-10-28T02:48:35.014Z,5.32
2022-10-28T02:51:11.899Z,5.78
2022-10-28T02:53:50.373Z,6.13
2022-10-28T02:56:22.594Z,5.82
2022-10-28T02:58:52.544Z,5.07
2022-10-28T03:01:22.363Z,5.30
2022-10-28T03:03:52.134Z,5.65
2022-10-28T03:08:55.361Z,5.72
2022-10-28T03:11:25.112Z,4.97
2022-10-28T03:13:54.988Z,5.68
2022-10-28T03:16:26.586Z,5.00
2022-10-28T03:18:56.571Z,5.43
2022-10-28T03:21:28.918Z,5.18
2022-10-28T03:23:58.778Z,5.22
2022-10-28T03:26:28.613Z,5.20
2022-10-28T03:28:58.319Z,4.75
2022-10-28T03:31:28.051Z,5.07
2022-10-28T03:33:58.126Z,4.60
2022-10-28T03:36:30.446Z,4.82
2022-10-28T03:39:00.253Z,5.25
2022-10-28T03:41:29.973Z,4.95
2022-10-28T03:43:59.944Z,4.97
2022-10-28T03:46:32.238Z,5.43
2022-10-28T03:49:04.804Z,5.40
2022-10-28T03:51:37.150Z,5.30
2022-10-28T03:54:07.142Z,5.57
2022-10-28T03:56:36.887Z,6.03
2022-10-28T03:59:06.633Z,4.85
2022-10-28T04:01:36.524Z,4.72
2022-10-28T04:04:06.698Z,4.63
2022-10-28T04:06:39.035Z,5.18
2022-10-28T04:09:08.720Z,4.68
2022-10-28T04:11:38.420Z,4.95
2022-10-28T04:14:08.306Z,4.82
2022-10-28T04:16:38.005Z,5.30
2022-10-28T04:19:07.729Z,4.65
2022-10-28T04:21:40.030Z,5.15
2022-10-28T04:24:10.013Z,5.07
2022-10-28T04:26:39.734Z,4.65
2022-10-28T04:29:09.629Z,4.25
2022-10-28T04:31:39.360Z,4.30
2022-10-28T04:34:09.101Z,4.13
2022-10-28T04:36:41.398Z,4.85
2022-10-28T04:39:12.524Z,4.43
2022-10-28T04:41:42.431Z,4.25
2022-10-28T04:44:12.169Z,4.22
2022-10-28T04:46:41.904Z,4.47
2022-10-28T04:49:11.639Z,4.57
2022-10-28T04:51:43.982Z,4.68
2022-10-28T04:54:13.907Z,5.10
2022-10-28T04:56:43.653Z,4.63
2022-10-28T04:59:13.515Z,5.25
2022-10-28T05:01:43.270Z,4.50
2022-10-28T05:04:13.020Z,4.80
2022-10-28T05:06:46.211Z,5.00
2022-10-28T05:09:16.133Z,5.28
2022-10-28T05:11:45.849Z,4.88
2022-10-28T05:14:15.668Z,5.00
2022-10-28T05:16:45.415Z,5.05
2022-10-28T05:19:15.142Z,5.50
2022-10-28T05:21:47.473Z,5.97
2022-10-28T05:24:17.210Z,6.15
2022-10-28T05:26:46.963Z,5.07
2022-10-28T05:29:18.389Z,5.40
2022-10-28T05:31:48.324Z,5.68
2022-10-28T05:34:18.002Z,5.57
2022-10-28T05:36:50.870Z,5.57
2022-10-28T05:39:21.203Z,5.78
2022-10-28T05:41:50.892Z,6.30
2022-10-28T05:44:20.577Z,5.57
2022-10-28T05:46:50.282Z,5.78
2022-10-28T05:49:20.764Z,6.13
2022-10-28T05:51:53.070Z,6.13
2022-10-28T05:54:22.822Z,6.50
2022-10-28T05:56:52.648Z,6.53
2022-10-28T05:59:22.358Z,7.18
2022-10-28T06:01:52.304Z,7.30
2022-10-28T06:04:22.089Z,7.95
2022-10-28T06:06:57.745Z,7.00
2022-10-28T06:09:29.991Z,6.05
2022-10-28T06:11:58.187Z,5.28
2022-10-28T06:14:28.012Z,5.65
2022-10-28T06:16:57.777Z,5.75
2022-10-28T06:19:27.595Z,6.03
2022-10-28T06:21:59.913Z,5.20
2022-10-28T06:24:29.643Z,5.15
2022-10-28T06:26:59.353Z,5.05
2022-10-28T06:29:30.627Z,5.60
2022-10-28T06:32:01.015Z,5.15
2022-10-28T06:34:30.811Z,4.50
2022-10-28T06:37:03.203Z,5.45
2022-10-28T06:39:33.048Z,5.85
2022-10-28T06:42:02.847Z,4.53
2022-10-28T06:44:32.586Z,5.07
2022-10-28T06:47:03.881Z,4.60
2022-10-28T06:49:33.633Z,4.68
2022-10-28T06:52:06.037Z,4.95
2022-10-28T06:54:35.740Z,4.88
2022-10-28T06:57:05.483Z,4.75
2022-10-28T06:59:35.255Z,5.22
2022-10-28T07:02:05.141Z,5.05
2022-10-28T07:04:36.353Z,4.93
2022-10-28T07:07:08.882Z,5.13
2022-10-28T07:09:39.625Z,5.15
2022-10-28T07:12:10.534Z,5.93
2022-10-28T07:14:40.402Z,5.35
2022-10-28T07:17:10.188Z,4.93
2022-10-28T07:19:39.897Z,4.97
2022-10-28T07:22:12.395Z,4.88
2022-10-28T07:24:42.116Z,4.88
2022-10-28T07:27:12.160Z,4.88
2022-10-28T07:29:41.875Z,5.78
2022-10-28T07:32:11.648Z,5.00
2022-10-28T07:34:41.349Z,5.82
2022-10-28T07:37:15.279Z,5.18
2022-10-28T07:39:44.991Z,5.13
2022-10-28T07:42:14.822Z,5.13
2022-10-28T07:44:44.626Z,5.43
2022-10-28T07:47:14.332Z,5.45
2022-10-28T07:49:44.195Z,5.45
2022-10-28T07:52:16.508Z,5.78
2022-10-28T07:54:46.445Z,6.10
2022-10-28T07:57:16.168Z,5.75
2022-10-28T07:59:45.872Z,5.20
2022-10-28T08:02:20.277Z,4.50
2022-10-28T08:04:50.013Z,4.93
2022-10-28T08:07:23.123Z,6.13
2022-10-28T08:09:54.582Z,5.63
2022-10-28T08:12:24.395Z,5.20
2022-10-28T08:14:54.357Z,4.32
2022-10-28T08:17:24.242Z,4.60
2022-10-28T08:19:53.953Z,4.72
2022-10-28T08:22:26.344Z,4.75
2022-10-28T08:24:56.087Z,4.50
2022-10-28T08:27:25.890Z,4.45
2022-10-28T08:29:56.056Z,4.88
2022-10-28T08:32:25.762Z,3.90
2022-10-28T08:34:55.519Z,4.45
2022-10-28T08:37:27.934Z,4.53
2022-10-28T08:39:57.715Z,5.25
2022-10-28T08:42:37.527Z,5.38
2022-10-28T08:45:34.378Z,5.03
2022-10-28T08:48:13.706Z,4.80
2022-10-28T08:50:49.320Z,4.47
2022-10-28T08:53:26.714Z,4.90
2022-10-28T08:56:02.626Z,4.43
2022-10-28T08:58:36.284Z,4.75
2022-10-28T09:01:09.364Z,4.47
2022-10-28T09:03:42.897Z,4.03
2022-10-28T09:06:13.598Z,4.07
2022-10-28T09:08:49.374Z,4.50
2022-10-28T09:11:39.962Z,4.45
2022-10-28T09:14:29.043Z,4.30
2022-10-28T09:17:09.225Z,4.20
2022-10-28T09:19:47.811Z,3.90
2022-10-28T09:22:29.742Z,4.05
2022-10-28T09:25:05.019Z,5.07
2022-10-28T09:27:49.789Z,6.60
2022-10-28T09:30:37.722Z,5.28
2022-10-28T09:33:20.317Z,4.60
2022-10-28T09:35:52.240Z,4.38
2022-10-28T09:38:30.544Z,4.05
2022-10-28T09:41:07.331Z,3.90
2022-10-28T09:43:40.024Z,3.70
2022-10-28T09:46:15.384Z,3.78
2022-10-28T09:48:48.681Z,6.03
2022-10-28T09:51:27.513Z,3.67
2022-10-28T09:54:00.135Z,3.53
2022-10-28T09:56:33.550Z,3.47
2022-10-28T09:59:05.425Z,3.47
2022-10-28T10:01:36.532Z,3.60
2022-10-28T10:04:19.247Z,3.47
2022-10-28T10:06:52.376Z,3.85
2022-10-28T10:09:26.297Z,3.67
2022-10-28T10:12:02.728Z,3.80
2022-10-28T10:14:34.563Z,4.45
2022-10-28T10:17:08.787Z,3.58
2022-10-28T10:20:03.797Z,4.25
2022-10-28T10:25:04.184Z,4.32
2022-10-28T10:27:36.674Z,3.83
2022-10-28T10:30:07.285Z,4.45
2022-10-28T10:32:37.258Z,3.95
2022-10-28T10:35:17.585Z,4.05
2022-10-28T10:37:49.888Z,3.50
2022-10-28T10:40:27.085Z,3.55
2022-10-28T10:43:16.497Z,3.50
2022-10-28T10:45:54.800Z,3.25
2022-10-28T10:48:24.610Z,3.95
2022-10-28T10:50:57.418Z,4.00
2022-10-28T10:53:28.870Z,3.40
2022-10-28T10:56:01.309Z,3.85
2022-10-28T10:58:35.666Z,4.05
2022-10-28T11:01:09.565Z,3.80
2022-10-28T11:03:48.251Z,4.40
2022-10-28T11:06:24.712Z,4.28
2022-10-28T11:09:00.656Z,4.18
2022-10-28T11:11:38.426Z,4.10
2022-10-28T11:14:25.273Z,4.18
2022-10-28T11:16:56.975Z,4.80
2022-10-28T11:19:31.317Z,4.90
2022-10-28T11:22:26.851Z,4.60
2022-10-28T11:25:22.735Z,4.40
2022-10-28T11:28:04.403Z,4.22
2022-10-28T11:30:49.400Z,3.85
2022-10-28T11:33:30.962Z,4.13
2022-10-28T11:36:12.653Z,3.80
2022-10-28T11:39:05.578Z,3.95
2022-10-28T11:41:47.566Z,3.60
2022-10-28T11:44:30.687Z,3.42
2022-10-28T11:47:16.901Z,3.50
2022-10-28T11:50:12.738Z,4.05
2022-10-28T11:53:09.201Z,5.03
2022-10-28T11:55:45.307Z,4.07
2022-10-28T11:58:23.321Z,4.07
2022-10-28T12:01:10.608Z,3.92
2022-10-28T12:04:11.156Z,3.65
2022-10-28T12:07:02.038Z,3.22
2022-10-28T12:09:43.156Z,3.30
2022-10-28T12:12:21.980Z,4.10
2022-10-28T12:15:01.900Z,4.10
2022-10-28T12:17:38.881Z,3.55
2022-10-28T12:20:18.089Z,3.25
2022-10-28T12:22:52.208Z,5.47
2022-10-28T12:25:27.091Z,3.17
2022-10-28T12:28:01.121Z,3.22
2022-10-28T12:30:34.374Z,3.28
2022-10-28T12:33:10.293Z,3.37
2022-10-28T12:35:47.780Z,3.45
2022-10-28T12:38:22.759Z,3.05
2022-10-28T12:40:58.267Z,3.08
2022-10-28T12:43:34.139Z,3.15
2022-10-28T12:46:05.018Z,3.25
2022-10-28T12:48:42.239Z,3.70
2022-10-28T12:51:20.032Z,3.33
2022-10-28T12:53:59.454Z,2.92
2022-10-28T12:56:34.055Z,2.45
2022-10-28T12:59:08.988Z,3.05
2022-10-28T13:01:39.567Z,2.78
2022-10-28T13:04:09.528Z,2.70
2022-10-28T13:07:01.903Z,3.85
2022-10-28T13:09:52.982Z,3.50
2022-10-28T13:12:52.110Z,3.20
2022-10-28T13:15:50.823Z,3.85
2022-10-28T13:18:59.631Z,3.13
2022-10-28T13:22:02.433Z,4.13
2022-10-28T13:24:42.967Z,3.67
2022-10-28T13:27:15.634Z,3.60
2022-10-28T13:29:51.616Z,3.50
2022-10-28T13:32:38.436Z,3.47
2022-10-28T13:35:17.637Z,3.67
2022-10-28T13:37:50.180Z,3.92
2022-10-28T13:41:04.030Z,3.85
2022-10-28T13:44:03.905Z,3.70
2022-10-28T13:47:03.783Z,3.72
2022-10-28T13:49:34.466Z,3.30
2022-10-28T13:52:06.117Z,3.40
2022-10-28T13:54:55.458Z,3.85
2022-10-28T13:57:32.656Z,3.58
2022-10-28T14:00:04.108Z,3.72
2022-10-28T14:02:40.240Z,4.15
2022-10-28T14:05:12.869Z,4.03
2022-10-28T14:07:54.560Z,3.95
2022-10-28T14:10:27.621Z,3.83
2022-10-28T14:13:03.304Z,4.03
2022-10-28T14:15:39.443Z,4.43
2022-10-28T14:18:42.128Z,4.80
2022-10-28T14:21:13.074Z,4.13
2022-10-28T14:24:11.748Z,3.70
2022-10-28T14:27:20.311Z,3.58
2022-10-28T14:30:18.988Z,3.95
2022-10-28T14:33:23.260Z,3.80
2022-10-28T14:36:16.435Z,5.50
2022-10-28T14:38:59.641Z,7.55
2022-10-28T14:41:47.128Z,5.45
2022-10-28T14:44:38.178Z,4.85
2022-10-28T14:47:32.616Z,5.30
2022-10-28T14:50:06.152Z,4.20
2022-10-28T14:52:39.716Z,4.50
2022-10-28T14:55:21.707Z,4.00
2022-10-28T14:57:51.617Z,4.35
2022-10-28T15:00:23.683Z,4.22
2022-10-28T15:02:58.277Z,4.10
2022-10-28T15:05:33.387Z,4.13
2022-10-28T15:08:06.123Z,5.78
2022-10-28T15:10:38.352Z,6.60
2022-10-28T15:13:18.997Z,6.97
2022-10-28T15:15:59.353Z,7.13
2022-10-28T15:18:34.503Z,7.60
2022-10-28T15:21:11.491Z,6.40
2022-10-28T15:23:41.263Z,6.00
2022-10-28T15:26:13.997Z,7.13
2022-10-28T15:28:46.595Z,7.78
2022-10-28T15:31:19.616Z,7.95
2022-10-28T15:33:51.926Z,6.45
2022-10-28T15:36:23.999Z,5.57
2022-10-28T15:38:54.635Z,4.93
2022-10-28T15:41:49.477Z,4.47
2022-10-28T15:44:33.111Z,5.00
2022-10-28T15:47:05.193Z,5.03
2022-10-28T15:49:40.542Z,4.60
2022-10-28T15:52:34.735Z,4.40
2022-10-28T15:55:18.279Z,4.40
2022-10-28T15:57:53.338Z,4.22
2022-10-28T16:00:28.768Z,4.53
2022-10-28T16:03:00.594Z,4.45
2022-10-28T16:05:49.295Z,4.75
2022-10-28T16:08:26.515Z,5.78
2022-10-28T16:10:59.277Z,4.95
2022-10-28T16:13:32.669Z,5.45
2022-10-28T16:16:06.722Z,4.90
2022-10-28T16:18:42.147Z,5.65
2022-10-28T16:21:19.627Z,5.88
2022-10-28T16:23:51.568Z,4.80
2022-10-28T16:26:21.436Z,5.30
2022-10-28T16:28:51.203Z,5.32
2022-10-28T16:31:23.516Z,5.63
2022-10-28T16:33:54.135Z,6.18
2022-10-28T16:36:28.106Z,5.65
2022-10-28T16:38:57.840Z,4.93
2022-10-28T16:41:27.771Z,4.88
2022-10-28T16:43:57.993Z,5.32
2022-10-28T16:46:27.750Z,5.25
2022-10-28T16:48:57.451Z,5.50
2022-10-28T16:51:29.746Z,5.22
2022-10-28T16:54:00.840Z,5.50
2022-10-28T16:56:30.520Z,5.03
2022-10-28T16:59:00.265Z,5.97
2022-10-28T17:01:30.098Z,4.78
2022-10-28T17:04:00.116Z,5.10
2022-10-28T17:06:32.606Z,5.78
2022-10-28T17:09:03.778Z,5.53
2022-10-28T17:11:33.982Z,5.93
2022-10-28T17:14:03.699Z,5.82
2022-10-28T17:16:33.453Z,5.82
2022-10-28T17:19:03.843Z,5.53
2022-10-28T17:21:36.197Z,6.18
2022-10-28T17:24:07.153Z,5.40
2022-10-28T17:26:36.985Z,5.05
2022-10-28T17:29:07.260Z,5.65
2022-10-28T17:31:36.981Z,6.72
2022-10-28T17:34:06.679Z,6.93
2022-10-28T17:36:39.012Z,5.93
2022-10-28T17:39:13.625Z,6.25
2022-10-28T17:41:46.286Z,5.50
2022-10-28T17:44:16.082Z,5.93
2022-10-28T17:46:45.861Z,5.55
2022-10-28T17:49:15.611Z,5.60
2022-10-28T17:51:47.916Z,4.80
2022-10-28T17:54:17.763Z,5.50
2022-10-28T17:56:47.844Z,5.15
2022-10-28T17:59:18.829Z,5.57
2022-10-28T18:01:48.706Z,5.25
2022-10-28T18:04:19.910Z,5.55
2022-10-28T18:06:52.201Z,5.35
2022-10-28T18:09:22.416Z,5.00
2022-10-28T18:11:52.730Z,5.57
2022-10-28T18:14:22.820Z,5.70
2022-10-28T18:16:52.878Z,6.72
2022-10-28T18:19:22.673Z,6.40
2022-10-28T18:21:54.999Z,5.50
2022-10-28T18:24:26.224Z,5.90
2022-10-28T18:27:01.398Z,5.85
2022-10-28T18:29:31.161Z,7.05
2022-10-28T18:32:04.299Z,7.03
2022-10-28T18:34:34.255Z,7.05
2022-10-28T18:37:08.741Z,6.50
2022-10-28T18:39:38.550Z,6.20
2022-10-28T18:42:10.759Z,6.68
2022-10-28T18:44:42.103Z,6.32
2022-10-28T18:47:11.813Z,5.95
2022-10-28T18:49:41.613Z,6.60
2022-10-28T18:52:14.045Z,6.43
2022-10-28T18:54:43.974Z,6.35
2022-10-28T18:57:13.720Z,5.88
2022-10-28T19:00:12.501Z,6.60
2022-10-28T19:02:33.429Z,6.70
2022-10-28T19:05:03.241Z,6.80
2022-10-28T19:07:35.571Z,6.95
2022-10-28T19:10:05.428Z,6.60
2022-10-28T19:12:39.304Z,6.40
2022-10-28T19:15:12.923Z,6.10
2022-10-28T19:17:42.675Z,7.03
2022-10-28T19:20:13.290Z,6.50
2022-10-28T19:22:45.690Z,6.90
2022-10-28T19:25:15.447Z,6.57
2022-10-28T19:27:45.268Z,6.93
2022-10-28T19:30:15.495Z,7.18
2022-10-28T19:32:45.222Z,6.97
2022-10-28T19:35:14.970Z,10.18
2022-10-28T19:37:47.301Z,7.03
2022-10-28T19:40:17.281Z,7.07
2022-10-28T19:42:47.060Z,7.00
2022-10-28T19:45:17.710Z,8.18
2022-10-28T19:47:47.464Z,7.40
2022-10-28T19:50:17.598Z,6.72
2022-10-28T19:52:49.903Z,6.47
2022-10-28T19:55:20.064Z,6.45
2022-10-28T19:57:51.980Z,6.85
2022-10-28T20:00:23.051Z,6.82
2022-10-28T20:02:52.859Z,8.07
2022-10-28T20:05:22.617Z,6.90
2022-10-28T20:07:55.220Z,6.63
2022-10-28T20:10:25.184Z,7.78
2022-10-28T20:12:55.188Z,8.07
2022-10-28T20:15:25.223Z,7.82
2022-10-28T20:17:54.976Z,7.35
2022-10-28T20:20:24.876Z,8.15
2022-10-28T20:22:57.433Z,7.55
2022-10-28T20:25:27.395Z,7.85
2022-10-28T20:27:57.703Z,7.28
2022-10-28T20:30:29.268Z,8.18
2022-10-28T20:32:59.048Z,8.20
2022-10-28T20:35:28.819Z,7.53
2022-10-28T20:38:01.118Z,7.40
2022-10-28T20:40:30.879Z,8.45
2022-10-28T20:43:00.593Z,7.32
2022-10-28T20:45:30.373Z,8.50
2022-10-28T20:48:00.183Z,8.15
2022-10-28T20:50:29.907Z,7.55
2022-10-28T20:53:02.199Z,7.93
2022-10-28T20:55:32.066Z,8.00
2022-10-28T20:58:01.845Z,8.07
2022-10-28T21:00:31.641Z,7.95
2022-10-28T21:03:01.881Z,9.30
2022-10-28T21:05:34.101Z,7.53
2022-10-28T21:08:06.610Z,8.20
2022-10-28T21:10:36.477Z,8.07
2022-10-28T21:13:06.873Z,8.52
2022-10-28T21:15:38.151Z,8.63
2022-10-28T21:18:09.766Z,8.02
2022-10-28T21:20:40.509Z,7.65
2022-10-28T21:23:13.020Z,8.88
2022-10-28T21:25:42.748Z,8.27
2022-10-28T21:28:12.580Z,8.88
2022-10-28T21:30:42.290Z,7.95
2022-10-28T21:33:12.238Z,7.97
2022-10-28T21:35:42.142Z,8.00
2022-10-28T21:38:14.442Z,8.77
2022-10-28T21:40:44.167Z,8.38
2022-10-28T21:43:13.855Z,7.82
2022-10-28T21:45:43.697Z,7.95
2022-10-28T21:48:13.407Z,8.80
2022-10-28T21:50:52.380Z,8.73
2022-10-28T21:53:25.363Z,8.15
2022-10-28T21:55:55.655Z,7.68
2022-10-28T21:58:25.426Z,8.90
2022-10-28T22:00:55.125Z,8.35
2022-10-28T22:03:24.926Z,7.72
2022-10-28T22:05:54.639Z,7.40
2022-10-28T22:08:26.999Z,8.20
2022-10-28T22:11:02.547Z,7.28
2022-10-28T22:13:32.524Z,7.78
2022-10-28T22:16:03.514Z,6.05
2022-10-28T22:18:34.957Z,6.75
2022-10-28T22:21:07.335Z,6.60
2022-10-28T22:23:39.805Z,6.63
2022-10-28T22:26:11.671Z,7.32
2022-10-28T22:28:42.335Z,6.28
2022-10-28T22:31:13.897Z,6.32
2022-10-28T22:33:43.931Z,6.07
2022-10-28T22:36:15.753Z,7.15
2022-10-28T22:38:48.294Z,6.35
2022-10-28T22:41:20.125Z,7.25
2022-10-28T22:43:52.633Z,5.78
2022-10-28T22:46:23.283Z,6.53
2022-10-28T22:48:53.163Z,6.65
2022-10-28T22:51:23.681Z,7.65
2022-10-28T22:53:56.013Z,7.53
2022-10-28T22:56:27.758Z,6.57
2022-10-28T22:58:58.959Z,6.32
2022-10-28T23:01:31.125Z,6.07
2022-10-28T23:04:01.963Z,6.45
2022-10-28T23:06:31.729Z,6.28
2022-10-28T23:09:04.081Z,6.43
2022-10-28T23:11:33.888Z,6.90
2022-10-28T23:14:03.603Z,6.30
2022-10-28T23:16:33.335Z,6.97
2022-10-28T23:19:03.579Z,6.65
2022-10-28T23:21:33.340Z,6.80
2022-10-28T23:24:05.638Z,6.88
2022-10-28T23:26:35.848Z,7.68
2022-10-28T23:29:05.793Z,7.20
2022-10-28T23:31:35.509Z,7.53
2022-10-28T23:34:05.240Z,7.72
2022-10-28T23:36:35.003Z,8.38
2022-10-28T23:39:07.282Z,7.93
2022-10-28T23:41:36.989Z,7.20
2022-10-28T23:44:06.814Z,6.72
2022-10-28T23:46:37.628Z,6.80
2022-10-28T23:49:07.488Z,7.15
2022-10-28T23:51:37.179Z,7.57
2022-10-28T23:54:09.477Z,7.32
2022-10-28T23:56:39.238Z,7.32
2022-10-28T23:59:08.961Z,7.60
